Time;durP1;ratioP1;P1;durP2;ratioP2;P2;SDS_P1;SDS_P2;PMS_P1;PMS_P2;Temp;Humidity;BMP_temperature;BMP_pressure;BME280_temperature;BME280_humidity;BME280_pressure;Samples;Min_cycle;Max_cycle;Signal;HPM_P1;HPM_P2
2021/12/28 00:01:06;;;;;;;1.88;1.77;;;;;;;;;;5090661;28;20208;-49
2021/12/28 00:03:32;;;;;;;2.20;2.00;;;;;;;;;;5095058;28;20186;-48
2021/12/28 00:06:00;;;;;;;2.72;2.20;;;;;;;;;;5094479;28;20502;-49
2021/12/28 00:08:26;;;;;;;2.40;1.98;;;;;;;;;;5094149;28;20266;-49
2021/12/28 00:10:52;;;;;;;2.35;1.95;;;;;;;;;;5095319;28;20564;-49
2021/12/28 00:13:18;;;;;;;2.45;1.98;;;;;;;;;;5095725;28;20210;-50
2021/12/28 00:18:13;;;;;;;2.90;1.85;;;;;;;;;;5094004;28;20224;-49
2021/12/28 00:20:42;;;;;;;2.10;1.90;;;;;;;;;;5095273;28;20192;-49
2021/12/28 00:23:13;;;;;;;2.25;2.05;;;;;;;;;;5095205;28;20178;-49
2021/12/28 00:25:40;;;;;;;1.95;1.80;;;;;;;;;;5078666;28;20621;-49
2021/12/28 00:28:06;;;;;;;2.10;1.90;;;;;;;;;;5094059;28;20256;-49
2021/12/28 00:30:32;;;;;;;7.57;1.88;;;;;;;;;;5094176;28;20553;-48
2021/12/28 00:32:58;;;;;;;2.40;2.20;;;;;;;;;;5092711;28;20324;-50
2021/12/28 00:35:25;;;;;;;1.80;1.70;;;;;;;;;;5095025;28;20178;-49
2021/12/28 00:37:52;;;;;;;2.30;2.10;;;;;;;;;;5095385;28;20213;-48
2021/12/28 00:40:18;;;;;;;2.20;2.00;;;;;;;;;;5095962;28;20310;-50
2021/12/28 00:42:45;;;;;;;2.75;2.00;;;;;;;;;;5093962;28;20194;-48
2021/12/28 00:45:11;;;;;;;1.90;1.80;;;;;;;;;;5095986;28;20177;-49
2021/12/28 00:47:37;;;;;;;1.85;1.75;;;;;;;;;;5107748;27;20229;-48
2021/12/28 00:50:03;;;;;;;2.25;1.75;;;;;;;;;;5123704;27;20585;-49
2021/12/28 00:52:29;;;;;;;1.92;1.83;;;;;;;;;;5132391;27;20200;-50
2021/12/28 00:54:55;;;;;;;1.95;1.85;;;;;;;;;;5118161;27;20173;-49
2021/12/28 00:57:21;;;;;;;1.98;1.70;;;;;;;;;;5124370;27;20222;-49
2021/12/28 00:59:48;;;;;;;1.95;1.85;;;;;;;;;;5115928;28;20243;-49
2021/12/28 01:02:13;;;;;;;2.22;1.95;;;;;;;;;;5123309;27;20200;-48
2021/12/28 01:04:39;;;;;;;2.03;1.90;;;;;;;;;;5129420;27;20242;-50
2021/12/28 01:07:06;;;;;;;2.10;1.80;;;;;;;;;;5120539;27;20602;-49
2021/12/28 01:09:32;;;;;;;1.83;1.73;;;;;;;;;;5114963;27;20188;-49
2021/12/28 01:11:59;;;;;;;2.58;2.10;;;;;;;;;;5120338;27;20213;-48
2021/12/28 01:14:25;;;;;;;1.95;1.73;;;;;;;;;;5114678;27;20181;-50
2021/12/28 01:16:51;;;;;;;2.20;2.00;;;;;;;;;;5115562;27;20184;-48
2021/12/28 01:19:17;;;;;;;2.10;1.90;;;;;;;;;;5124205;27;20189;-49
2021/12/28 01:21:43;;;;;;;2.03;1.92;;;;;;;;;;5117714;27;20176;-48
2021/12/28 01:24:09;;;;;;;2.53;1.83;;;;;;;;;;5109564;28;20226;-49
2021/12/28 01:26:35;;;;;;;1.98;1.77;;;;;;;;;;5110310;28;20602;-49
2021/12/28 01:29:01;;;;;;;1.70;1.60;;;;;;;;;;5110829;27;20185;-49
2021/12/28 01:31:27;;;;;;;2.00;1.90;;;;;;;;;;5111517;27;20230;-48
2021/12/28 01:33:53;;;;;;;1.80;1.65;;;;;;;;;;5107441;28;20216;-49
2021/12/28 01:36:19;;;;;;;1.83;1.70;;;;;;;;;;5109718;27;20459;-48
2021/12/28 01:38:45;;;;;;;1.95;1.80;;;;;;;;;;5113231;27;20329;-49
2021/12/28 01:41:12;;;;;;;2.10;1.90;;;;;;;;;;5128635;27;20667;-48
2021/12/28 01:43:39;;;;;;;1.83;1.60;;;;;;;;;;5124986;27;20188;-49
2021/12/28 01:46:05;;;;;;;2.35;1.92;;;;;;;;;;5129313;27;20177;-49
2021/12/28 01:48:34;;;;;;;2.10;1.90;;;;;;;;;;5113640;28;20342;-49
2021/12/28 01:51:02;;;;;;;2.22;1.83;;;;;;;;;;5112814;28;20192;-49
2021/12/28 01:53:29;;;;;;;2.00;1.80;;;;;;;;;;5112658;28;20219;-49
2021/12/28 01:55:56;;;;;;;1.92;1.73;;;;;;;;;;5114195;28;20173;-49
2021/12/28 01:58:22;;;;;;;1.70;1.60;;;;;;;;;;5113875;28;20615;-49
2021/12/28 02:00:49;;;;;;;2.03;1.88;;;;;;;;;;5115864;28;20578;-48
2021/12/28 02:03:16;;;;;;;2.17;1.98;;;;;;;;;;5109406;28;20181;-50
2021/12/28 02:05:43;;;;;;;2.15;1.88;;;;;;;;;;5112198;28;20234;-48
2021/12/28 02:08:12;;;;;;;2.00;1.80;;;;;;;;;;5113384;28;20591;-50
2021/12/28 02:10:38;;;;;;;2.13;1.92;;;;;;;;;;5115129;28;20470;-49
2021/12/28 02:13:05;;;;;;;2.92;1.90;;;;;;;;;;5110406;28;20305;-48
2021/12/28 02:15:31;;;;;;;1.67;1.58;;;;;;;;;;5113256;28;20195;-49
2021/12/28 02:17:57;;;;;;;1.80;1.70;;;;;;;;;;5112345;28;20173;-49
2021/12/28 02:20:23;;;;;;;2.38;2.17;;;;;;;;;;5115415;28;20174;-48
2021/12/28 02:22:50;;;;;;;2.28;1.70;;;;;;;;;;5110074;28;20405;-48
2021/12/28 02:25:16;;;;;;;2.20;1.80;;;;;;;;;;5111262;28;20184;-49
2021/12/28 02:27:42;;;;;;;2.08;1.80;;;;;;;;;;5111586;28;20288;-49
2021/12/28 02:30:11;;;;;;;2.13;1.92;;;;;;;;;;5112123;28;20331;-49
2021/12/28 02:32:38;;;;;;;1.70;1.60;;;;;;;;;;5112206;28;20587;-50
2021/12/28 02:35:06;;;;;;;1.95;1.75;;;;;;;;;;5111725;28;20206;-49
2021/12/28 02:37:31;;;;;;;2.05;1.90;;;;;;;;;;5113853;28;20544;-48
2021/12/28 02:39:57;;;;;;;2.25;2.05;;;;;;;;;;5112799;28;20181;-49
2021/12/28 02:42:24;;;;;;;3.50;2.00;;;;;;;;;;5110230;28;20478;-49
2021/12/28 02:45:10;;;;;;;1.95;1.80;;;;;;;;;;5110123;28;20183;-49
2021/12/28 02:47:42;;;;;;;2.90;2.05;;;;;;;;;;5113897;27;20196;-49
2021/12/28 02:50:10;;;;;;;2.03;1.80;;;;;;;;;;5121069;27;20275;-48
2021/12/28 02:52:36;;;;;;;3.38;1.95;;;;;;;;;;5121542;27;20205;-50
2021/12/28 02:55:03;;;;;;;3.30;1.77;;;;;;;;;;5121324;27;20478;-49
2021/12/28 02:57:29;;;;;;;2.40;2.20;;;;;;;;;;5115876;27;20242;-49
2021/12/28 02:59:55;;;;;;;4.70;1.98;;;;;;;;;;5114472;28;20177;-50
2021/12/28 03:02:21;;;;;;;2.05;1.85;;;;;;;;;;5113691;27;20208;-49
2021/12/28 03:04:47;;;;;;;2.60;2.40;;;;;;;;;;5117016;27;20172;-48
2021/12/28 03:07:13;;;;;;;2.15;1.95;;;;;;;;;;5131137;27;20184;-48
2021/12/28 03:09:39;;;;;;;2.15;1.95;;;;;;;;;;5120229;27;20181;-49
2021/12/28 03:12:06;;;;;;;3.97;2.42;;;;;;;;;;5120065;27;20204;-49
2021/12/28 03:14:32;;;;;;;2.20;2.00;;;;;;;;;;5117945;27;20450;-49
2021/12/28 03:16:58;;;;;;;2.00;1.90;;;;;;;;;;5113322;28;20177;-50
2021/12/28 03:19:24;;;;;;;2.03;1.83;;;;;;;;;;5130032;27;20189;-49
2021/12/28 03:21:51;;;;;;;2.50;1.85;;;;;;;;;;5100718;28;20259;-50
2021/12/28 03:24:17;;;;;;;2.60;1.80;;;;;;;;;;5123976;27;20237;-48
2021/12/28 03:26:43;;;;;;;2.17;1.98;;;;;;;;;;5109013;27;20176;-48
2021/12/28 03:29:10;;;;;;;2.00;1.80;;;;;;;;;;5125038;27;20548;-48
2021/12/28 03:31:36;;;;;;;2.28;1.95;;;;;;;;;;5123892;27;20664;-48
2021/12/28 03:34:02;;;;;;;2.95;1.98;;;;;;;;;;5118158;27;20258;-50
2021/12/28 03:36:29;;;;;;;2.05;1.65;;;;;;;;;;5114297;27;20181;-49
2021/12/28 03:38:56;;;;;;;2.33;2.05;;;;;;;;;;5122230;27;20185;-49
2021/12/28 03:41:23;;;;;;;2.40;1.75;;;;;;;;;;5128359;27;20185;-49
2021/12/28 03:43:50;;;;;;;2.15;1.95;;;;;;;;;;5123748;27;20203;-50
2021/12/28 03:46:17;;;;;;;1.92;1.83;;;;;;;;;;5110901;28;20181;-50
2021/12/28 03:48:44;;;;;;;2.40;2.13;;;;;;;;;;5090956;28;20437;-50
2021/12/28 03:51:10;;;;;;;2.25;2.05;;;;;;;;;;5091657;28;20182;-49
2021/12/28 03:53:36;;;;;;;2.22;2.03;;;;;;;;;;5092069;28;20247;-48
2021/12/28 03:56:03;;;;;;;2.53;2.33;;;;;;;;;;5082483;28;20162;-49
2021/12/28 03:58:29;;;;;;;2.20;2.00;;;;;;;;;;5089526;28;20185;-48
2021/12/28 04:00:55;;;;;;;3.00;2.10;;;;;;;;;;5092279;28;20232;-49
2021/12/28 04:03:21;;;;;;;1.95;1.80;;;;;;;;;;5091450;28;20187;-49
2021/12/28 04:05:47;;;;;;;2.30;2.08;;;;;;;;;;5091255;28;20470;-49
2021/12/28 04:08:19;;;;;;;2.03;1.77;;;;;;;;;;5091767;28;20200;-48
2021/12/28 04:13:30;;;;;;;1.92;1.73;;;;;;;;;;5091179;28;20256;-48
2021/12/28 04:15:56;;;;;;;2.38;2.15;;;;;;;;;;5091642;28;20610;-49
2021/12/28 04:18:22;;;;;;;2.28;2.08;;;;;;;;;;5084308;28;20268;-49
2021/12/28 04:20:48;;;;;;;1.80;1.70;;;;;;;;;;5091497;28;20184;-49
2021/12/28 04:23:14;;;;;;;2.10;1.90;;;;;;;;;;5092288;28;20181;-48
2021/12/28 04:25:40;;;;;;;2.10;2.00;;;;;;;;;;5091760;28;20223;-49
2021/12/28 04:28:06;;;;;;;5.03;2.30;;;;;;;;;;5090965;28;20201;-50
2021/12/28 04:30:32;;;;;;;2.75;1.90;;;;;;;;;;5091708;28;20488;-49
2021/12/28 04:32:58;;;;;;;2.88;2.08;;;;;;;;;;5087605;28;20569;-49
2021/12/28 04:35:24;;;;;;;1.98;1.70;;;;;;;;;;5089162;28;20208;-49
2021/12/28 04:37:50;;;;;;;2.08;1.88;;;;;;;;;;5090844;28;20177;-48
2021/12/28 04:40:16;;;;;;;2.63;1.90;;;;;;;;;;5092068;28;20186;-49
2021/12/28 04:42:42;;;;;;;1.80;1.70;;;;;;;;;;5091541;28;20178;-49
2021/12/28 04:45:10;;;;;;;2.30;2.10;;;;;;;;;;5090621;28;20192;-50
2021/12/28 04:47:36;;;;;;;2.08;1.98;;;;;;;;;;5093355;28;20303;-50
2021/12/28 04:50:04;;;;;;;1.80;1.70;;;;;;;;;;5095046;28;20185;-50
2021/12/28 04:52:33;;;;;;;1.98;1.80;;;;;;;;;;5094702;28;20210;-50
2021/12/28 04:54:59;;;;;;;1.90;1.70;;;;;;;;;;5095560;28;20243;-49
2021/12/28 04:57:25;;;;;;;2.15;1.98;;;;;;;;;;5093421;28;20268;-49
2021/12/28 04:59:51;;;;;;;1.85;1.67;;;;;;;;;;5095998;28;20170;-48
2021/12/28 05:02:17;;;;;;;2.08;1.90;;;;;;;;;;5093855;28;20213;-48
2021/12/28 05:04:44;;;;;;;2.38;2.05;;;;;;;;;;5094174;28;20182;-49
2021/12/28 05:07:10;;;;;;;2.50;1.90;;;;;;;;;;5092098;28;20182;-48
2021/12/28 05:09:36;;;;;;;2.05;1.85;;;;;;;;;;5093864;28;20657;-48
2021/12/28 05:12:02;;;;;;;3.67;2.10;;;;;;;;;;5094058;28;20186;-50
2021/12/28 05:14:28;;;;;;;2.72;2.42;;;;;;;;;;5078255;28;20186;-49
2021/12/28 05:16:54;;;;;;;7.05;2.63;;;;;;;;;;5094639;28;20185;-49
2021/12/28 05:19:20;;;;;;;4.07;3.00;;;;;;;;;;5092707;28;20224;-49
2021/12/28 05:21:46;;;;;;;5.90;3.00;;;;;;;;;;5086833;28;20510;-50
2021/12/28 05:24:12;;;;;;;7.18;3.10;;;;;;;;;;5092670;28;20243;-48
2021/12/28 05:26:38;;;;;;;6.28;3.30;;;;;;;;;;5085189;28;20187;-49
2021/12/28 05:29:04;;;;;;;10.10;3.08;;;;;;;;;;5093369;28;20178;-50
2021/12/28 05:31:30;;;;;;;9.85;3.47;;;;;;;;;;5092773;28;20179;-50
2021/12/28 05:33:57;;;;;;;4.78;2.90;;;;;;;;;;5092218;28;20225;-49
2021/12/28 05:36:23;;;;;;;6.85;3.47;;;;;;;;;;5094487;28;20186;-48
2021/12/28 05:38:49;;;;;;;8.07;3.30;;;;;;;;;;5094220;28;20181;-50
2021/12/28 05:41:15;;;;;;;7.78;3.53;;;;;;;;;;5094030;28;20276;-49
2021/12/28 05:43:42;;;;;;;7.65;3.50;;;;;;;;;;5091313;28;20447;-49
2021/12/28 05:46:08;;;;;;;6.10;3.30;;;;;;;;;;5093245;28;20602;-50
2021/12/28 05:48:34;;;;;;;6.50;3.28;;;;;;;;;;5089658;28;20355;-50
2021/12/28 05:51:00;;;;;;;6.30;3.15;;;;;;;;;;5092758;28;20296;-49
2021/12/28 05:53:26;;;;;;;7.55;3.20;;;;;;;;;;5093909;28;20211;-49
2021/12/28 05:55:52;;;;;;;5.28;3.25;;;;;;;;;;5093737;28;20775;-50
2021/12/28 05:58:18;;;;;;;5.35;3.13;;;;;;;;;;5091827;28;20259;-50
2021/12/28 06:00:44;;;;;;;5.63;3.33;;;;;;;;;;5089247;28;20227;-48
2021/12/28 06:03:10;;;;;;;4.65;3.10;;;;;;;;;;5092232;28;20618;-49
2021/12/28 06:05:36;;;;;;;4.35;2.90;;;;;;;;;;5094066;28;20203;-48
2021/12/28 06:08:02;;;;;;;4.70;3.40;;;;;;;;;;5089374;28;20193;-49
2021/12/28 06:10:28;;;;;;;4.63;2.80;;;;;;;;;;5093962;28;20596;-49
2021/12/28 06:12:55;;;;;;;5.10;2.97;;;;;;;;;;5092964;28;20247;-49
2021/12/28 06:15:21;;;;;;;4.32;2.85;;;;;;;;;;5091713;28;20266;-49
2021/12/28 06:17:47;;;;;;;4.63;3.10;;;;;;;;;;5093367;28;20293;-49
2021/12/28 06:20:13;;;;;;;7.30;3.20;;;;;;;;;;5094204;28;20182;-49
2021/12/28 06:22:39;;;;;;;5.53;2.83;;;;;;;;;;5088704;28;20201;-49
2021/12/28 06:25:07;;;;;;;4.43;2.83;;;;;;;;;;5087671;28;20288;-49
2021/12/28 06:27:33;;;;;;;3.50;2.80;;;;;;;;;;5085482;28;20215;-49
2021/12/28 06:29:59;;;;;;;5.00;2.97;;;;;;;;;;5092337;28;20184;-49
2021/12/28 06:32:25;;;;;;;5.00;3.13;;;;;;;;;;5092125;28;20206;-50
2021/12/28 06:34:51;;;;;;;7.57;2.88;;;;;;;;;;5085479;28;20277;-49
2021/12/28 06:37:17;;;;;;;7.88;3.63;;;;;;;;;;5092925;28;20188;-50
2021/12/28 06:39:43;;;;;;;4.65;3.05;;;;;;;;;;5093896;28;20182;-49
2021/12/28 06:42:09;;;;;;;7.43;3.05;;;;;;;;;;5087780;28;20185;-50
2021/12/28 06:44:35;;;;;;;5.50;3.00;;;;;;;;;;5092521;28;20181;-50
2021/12/28 06:47:01;;;;;;;5.70;3.10;;;;;;;;;;5087471;28;20204;-49
2021/12/28 06:49:27;;;;;;;4.95;2.72;;;;;;;;;;5092642;28;20192;-50
2021/12/28 06:51:53;;;;;;;7.15;3.20;;;;;;;;;;5091570;28;20566;-49
2021/12/28 06:54:19;;;;;;;5.50;3.17;;;;;;;;;;5092814;28;20248;-48
2021/12/28 06:56:46;;;;;;;5.57;3.22;;;;;;;;;;5092651;28;20233;-49
2021/12/28 06:59:12;;;;;;;4.55;3.13;;;;;;;;;;5091589;28;20231;-49
2021/12/28 07:01:38;;;;;;;7.68;3.47;;;;;;;;;;5091230;28;20209;-50
2021/12/28 07:04:04;;;;;;;6.22;3.28;;;;;;;;;;5085988;28;20556;-50
2021/12/28 07:06:30;;;;;;;6.97;2.95;;;;;;;;;;5092426;28;20260;-49
2021/12/28 07:08:56;;;;;;;5.57;3.05;;;;;;;;;;5092461;28;20265;-50
2021/12/28 07:11:22;;;;;;;8.10;3.60;;;;;;;;;;5092277;28;20197;-49
2021/12/28 07:13:48;;;;;;;8.00;3.28;;;;;;;;;;5091411;28;20283;-49
2021/12/28 07:16:14;;;;;;;5.82;3.35;;;;;;;;;;5091638;28;21067;-50
2021/12/28 07:18:40;;;;;;;6.68;3.60;;;;;;;;;;5088445;28;20192;-50
2021/12/28 07:21:06;;;;;;;4.53;3.03;;;;;;;;;;5089852;28;20205;-49
2021/12/28 07:23:32;;;;;;;6.72;3.08;;;;;;;;;;5091129;28;20213;-49
2021/12/28 07:25:58;;;;;;;7.55;3.20;;;;;;;;;;5088430;28;20186;-49
2021/12/28 07:28:25;;;;;;;6.28;3.67;;;;;;;;;;5070617;28;20186;-49
2021/12/28 07:30:53;;;;;;;6.05;3.45;;;;;;;;;;5091607;28;20606;-49
2021/12/28 07:33:19;;;;;;;9.85;3.45;;;;;;;;;;5092607;28;20221;-49
2021/12/28 07:35:45;;;;;;;10.18;3.60;;;;;;;;;;5092309;28;20468;-48
2021/12/28 07:38:10;;;;;;;9.25;3.67;;;;;;;;;;5092333;28;20272;-50
2021/12/28 07:40:36;;;;;;;6.63;3.40;;;;;;;;;;5086283;28;20682;-48
2021/12/28 07:43:03;;;;;;;11.57;3.92;;;;;;;;;;5089769;28;20178;-49
2021/12/28 07:45:29;;;;;;;5.78;2.78;;;;;;;;;;5091723;28;20197;-49
2021/12/28 07:47:55;;;;;;;6.03;3.20;;;;;;;;;;5094772;28;20218;-48
2021/12/28 07:50:21;;;;;;;6.45;3.10;;;;;;;;;;5099410;28;20192;-48
2021/12/28 07:52:47;;;;;;;4.97;2.92;;;;;;;;;;5102248;28;20321;-50
2021/12/28 07:55:14;;;;;;;5.47;3.05;;;;;;;;;;5107741;28;20453;-50
2021/12/28 07:57:41;;;;;;;6.85;3.50;;;;;;;;;;5092166;28;20177;-49
2021/12/28 08:00:09;;;;;;;6.47;3.38;;;;;;;;;;5099048;28;20177;-49
2021/12/28 08:02:35;;;;;;;8.10;3.00;;;;;;;;;;5107949;28;20193;-50
2021/12/28 08:05:01;;;;;;;5.38;3.22;;;;;;;;;;5100568;28;20221;-50
2021/12/28 08:07:27;;;;;;;10.95;3.45;;;;;;;;;;5103760;28;20546;-49
2021/12/28 08:09:53;;;;;;;7.07;3.40;;;;;;;;;;5109091;28;20212;-48
2021/12/28 08:12:19;;;;;;;6.35;3.20;;;;;;;;;;5101828;28;20201;-49
2021/12/28 08:14:45;;;;;;;6.32;3.25;;;;;;;;;;5096851;28;20174;-48
2021/12/28 08:17:11;;;;;;;8.18;2.80;;;;;;;;;;5100131;28;20255;-49
2021/12/28 08:19:38;;;;;;;5.68;3.10;;;;;;;;;;5109873;28;20181;-50
2021/12/28 08:22:04;;;;;;;8.25;3.30;;;;;;;;;;5100940;28;20560;-49
2021/12/28 08:24:30;;;;;;;4.75;3.15;;;;;;;;;;5102403;28;20256;-48
2021/12/28 08:26:56;;;;;;;5.28;2.83;;;;;;;;;;5104964;28;20443;-50
2021/12/28 08:29:22;;;;;;;5.53;2.88;;;;;;;;;;5102535;28;20211;-49
2021/12/28 08:31:49;;;;;;;4.43;2.90;;;;;;;;;;5108122;28;20188;-49
2021/12/28 08:34:15;;;;;;;5.75;2.95;;;;;;;;;;5105033;28;20471;-48
2021/12/28 08:36:40;;;;;;;4.68;2.78;;;;;;;;;;5108059;28;20567;-49
2021/12/28 08:39:07;;;;;;;4.25;2.65;;;;;;;;;;5107892;28;20177;-49
2021/12/28 08:41:33;;;;;;;5.38;2.63;;;;;;;;;;5107496;28;20606;-49
2021/12/28 08:43:59;;;;;;;4.78;3.28;;;;;;;;;;5099452;28;20188;-49
2021/12/28 08:46:25;;;;;;;3.90;2.58;;;;;;;;;;5104972;28;20474;-48
2021/12/28 08:48:51;;;;;;;3.97;2.70;;;;;;;;;;5104166;28;20217;-48
2021/12/28 08:51:18;;;;;;;5.43;2.80;;;;;;;;;;5091988;28;20496;-48
2021/12/28 08:53:44;;;;;;;4.05;2.60;;;;;;;;;;5113827;28;20201;-49
2021/12/28 08:56:10;;;;;;;8.38;3.22;;;;;;;;;;5103967;28;20256;-48
2021/12/28 08:58:36;;;;;;;4.22;2.63;;;;;;;;;;5097057;28;20652;-48
2021/12/28 09:01:03;;;;;;;7.68;2.88;;;;;;;;;;5099266;28;20179;-48
2021/12/28 09:03:29;;;;;;;5.53;2.75;;;;;;;;;;5101095;28;20189;-49
2021/12/28 09:05:55;;;;;;;3.42;2.50;;;;;;;;;;5106421;28;20189;-49
2021/12/28 09:08:21;;;;;;;3.38;2.40;;;;;;;;;;5096580;28;20189;-49
2021/12/28 09:10:48;;;;;;;3.35;2.60;;;;;;;;;;5104474;28;20177;-48
2021/12/28 09:13:15;;;;;;;4.80;2.30;;;;;;;;;;5111088;28;20204;-50
2021/12/28 09:15:42;;;;;;;3.75;2.50;;;;;;;;;;5099567;28;20260;-49
2021/12/28 09:18:08;;;;;;;3.65;2.58;;;;;;;;;;5094430;28;20174;-49
2021/12/28 09:20:34;;;;;;;3.95;2.28;;;;;;;;;;5100995;28;20178;-49
2021/12/28 09:23:00;;;;;;;3.42;2.50;;;;;;;;;;5103070;28;20616;-49
2021/12/28 09:25:26;;;;;;;2.90;2.22;;;;;;;;;;5097366;28;20186;-49
2021/12/28 09:27:52;;;;;;;3.83;2.63;;;;;;;;;;5107816;28;20452;-49
2021/12/28 09:30:18;;;;;;;4.43;2.72;;;;;;;;;;5093552;28;20575;-50
2021/12/28 09:32:44;;;;;;;5.20;2.53;;;;;;;;;;5090879;28;20205;-49
2021/12/28 09:35:11;;;;;;;3.58;2.38;;;;;;;;;;5101260;28;20218;-49
2021/12/28 09:37:37;;;;;;;3.72;2.47;;;;;;;;;;5102855;28;20182;-49
2021/12/28 09:40:04;;;;;;;4.70;2.63;;;;;;;;;;5102853;28;20173;-48
2021/12/28 09:42:30;;;;;;;2.42;2.15;;;;;;;;;;5100310;28;20186;-50
2021/12/28 09:44:56;;;;;;;3.33;2.30;;;;;;;;;;5098048;28;20256;-49
2021/12/28 09:47:22;;;;;;;3.90;2.63;;;;;;;;;;5084831;28;20227;-50
2021/12/28 09:49:49;;;;;;;2.92;2.30;;;;;;;;;;5087946;28;20799;-50
2021/12/28 09:52:17;;;;;;;3.20;2.63;;;;;;;;;;5081867;28;20190;-49
2021/12/28 09:54:43;;;;;;;2.75;2.38;;;;;;;;;;5089147;28;20437;-50
2021/12/28 09:57:09;;;;;;;3.97;2.50;;;;;;;;;;5089863;28;20178;-50
2021/12/28 09:59:35;;;;;;;2.40;2.17;;;;;;;;;;5087381;28;20205;-49
2021/12/28 10:02:08;;;;;;;3.00;2.35;;;;;;;;;;5090425;28;20185;-49
2021/12/28 10:04:35;;;;;;;3.13;2.40;;;;;;;;;;5090178;28;20826;-50
2021/12/28 10:07:21;;;;;;;2.90;2.13;;;;;;;;;;5089338;28;20557;-49
2021/12/28 10:09:48;;;;;;;3.22;2.10;;;;;;;;;;5088694;28;20185;-49
2021/12/28 10:12:25;;;;;;;2.25;2.00;;;;;;;;;;5088525;28;20196;-49
2021/12/28 10:14:54;;;;;;;3.10;2.28;;;;;;;;;;5088003;28;20188;-49
2021/12/28 10:17:24;;;;;;;2.45;2.00;;;;;;;;;;5090167;28;20186;-49
2021/12/28 10:19:50;;;;;;;2.75;2.55;;;;;;;;;;5094039;28;20236;-49
2021/12/28 10:22:33;;;;;;;2.50;2.28;;;;;;;;;;5085852;28;20195;-49
2021/12/28 10:24:59;;;;;;;2.67;2.20;;;;;;;;;;5082455;28;20582;-49
2021/12/28 10:27:26;;;;;;;2.88;2.08;;;;;;;;;;5080618;28;20173;-49
2021/12/28 10:29:53;;;;;;;2.80;2.40;;;;;;;;;;5093569;28;20178;-50
2021/12/28 10:32:20;;;;;;;2.47;2.15;;;;;;;;;;5088071;28;20213;-49
2021/12/28 10:34:48;;;;;;;2.45;2.17;;;;;;;;;;5084422;28;20261;-50
2021/12/28 10:37:22;;;;;;;3.38;2.30;;;;;;;;;;5084413;28;20221;-50
2021/12/28 10:39:51;;;;;;;2.72;2.22;;;;;;;;;;5078926;28;20167;-49
2021/12/28 10:42:36;;;;;;;2.63;2.08;;;;;;;;;;5085673;28;20201;-49
2021/12/28 10:45:03;;;;;;;2.55;2.08;;;;;;;;;;5078987;28;20170;-49
2021/12/28 10:47:29;;;;;;;3.30;2.10;;;;;;;;;;5088323;28;20229;-48
2021/12/28 10:49:57;;;;;;;2.40;2.15;;;;;;;;;;5092302;28;20213;-50
2021/12/28 10:52:38;;;;;;;2.70;2.40;;;;;;;;;;5087984;28;20206;-50
2021/12/28 10:55:21;;;;;;;4.03;2.10;;;;;;;;;;5080488;28;20175;-49
2021/12/28 10:57:47;;;;;;;2.20;2.00;;;;;;;;;;5088422;28;20216;-49
2021/12/28 11:00:25;;;;;;;2.50;2.20;;;;;;;;;;5090643;28;20236;-49
2021/12/28 11:02:52;;;;;;;2.17;1.98;;;;;;;;;;5091462;28;20181;-49
2021/12/28 11:05:34;;;;;;;1.95;1.75;;;;;;;;;;5092580;28;20227;-48
2021/12/28 11:08:01;;;;;;;3.30;2.33;;;;;;;;;;5091257;28;20209;-50
2021/12/28 11:10:27;;;;;;;5.28;2.28;;;;;;;;;;5092775;28;20185;-49
2021/12/28 11:12:57;;;;;;;2.30;2.10;;;;;;;;;;5085008;28;20293;-50
2021/12/28 11:15:24;;;;;;;2.72;2.20;;;;;;;;;;5089013;28;20222;-49
2021/12/28 11:17:50;;;;;;;2.30;1.90;;;;;;;;;;5091461;28;20271;-50
2021/12/28 11:20:16;;;;;;;2.20;2.00;;;;;;;;;;5093045;28;20202;-48
2021/12/28 11:23:02;;;;;;;2.10;1.90;;;;;;;;;;5086406;28;20189;-50
2021/12/28 11:25:30;;;;;;;2.33;2.03;;;;;;;;;;5083179;28;20243;-49
2021/12/28 11:28:16;;;;;;;2.33;1.85;;;;;;;;;;5091528;28;20209;-49
2021/12/28 11:30:57;;;;;;;2.22;1.95;;;;;;;;;;5090701;28;20452;-49
2021/12/28 11:33:24;;;;;;;2.10;1.80;;;;;;;;;;5090958;28;20282;-49
2021/12/28 11:35:49;;;;;;;2.17;1.98;;;;;;;;;;5091766;28;20551;-49
2021/12/28 11:38:16;;;;;;;2.67;1.90;;;;;;;;;;5091707;28;20189;-50
2021/12/28 11:40:42;;;;;;;1.70;1.60;;;;;;;;;;5093729;28;20182;-49
2021/12/28 11:43:08;;;;;;;2.10;1.90;;;;;;;;;;5086708;28;20205;-50
2021/12/28 11:45:34;;;;;;;2.92;1.92;;;;;;;;;;5089776;28;20271;-50
2021/12/28 11:48:00;;;;;;;2.13;1.77;;;;;;;;;;5090822;28;20260;-49
2021/12/28 11:50:26;;;;;;;2.05;1.83;;;;;;;;;;5091167;28;20182;-50
2021/12/28 11:52:52;;;;;;;2.55;1.98;;;;;;;;;;5092540;28;20205;-50
2021/12/28 11:55:19;;;;;;;2.30;1.90;;;;;;;;;;5094873;28;20177;-48
2021/12/28 11:57:54;;;;;;;2.10;1.90;;;;;;;;;;5098150;28;20174;-48
2021/12/28 12:00:22;;;;;;;2.28;1.77;;;;;;;;;;5098098;28;20177;-50
2021/12/28 12:02:49;;;;;;;2.08;1.88;;;;;;;;;;5099867;28;20181;-50
2021/12/28 12:05:19;;;;;;;2.58;2.30;;;;;;;;;;5096793;28;20209;-49
2021/12/28 12:07:45;;;;;;;2.03;1.83;;;;;;;;;;5092283;28;20290;-50
2021/12/28 12:10:27;;;;;;;2.10;1.90;;;;;;;;;;5099533;28;20185;-49
2021/12/28 12:12:54;;;;;;;2.13;1.92;;;;;;;;;;5098706;28;20227;-49
2021/12/28 12:15:21;;;;;;;1.65;1.55;;;;;;;;;;5093169;28;20178;-49
2021/12/28 12:17:47;;;;;;;2.00;1.80;;;;;;;;;;5098666;28;20170;-50
2021/12/28 12:20:17;;;;;;;2.00;1.80;;;;;;;;;;5098528;28;20535;-49
2021/12/28 12:22:45;;;;;;;2.30;1.83;;;;;;;;;;5098392;28;20181;-48
2021/12/28 12:25:13;;;;;;;2.13;1.92;;;;;;;;;;5097979;28;20213;-48
2021/12/28 12:27:56;;;;;;;1.85;1.75;;;;;;;;;;5098369;28;20212;-49
2021/12/28 12:30:24;;;;;;;2.65;2.00;;;;;;;;;;5094585;28;20256;-49
2021/12/28 12:33:03;;;;;;;1.88;1.67;;;;;;;;;;5093343;28;20209;-49
2021/12/28 12:35:33;;;;;;;1.65;1.50;;;;;;;;;;5095431;28;20306;-49
2021/12/28 12:38:03;;;;;;;2.35;2.08;;;;;;;;;;5098347;28;20182;-50
2021/12/28 12:40:48;;;;;;;1.98;1.80;;;;;;;;;;5097530;28;20201;-48
2021/12/28 12:43:14;;;;;;;1.80;1.70;;;;;;;;;;5098580;28;20260;-50
2021/12/28 12:45:53;;;;;;;1.73;1.63;;;;;;;;;;5096574;28;20304;-49
2021/12/28 12:48:31;;;;;;;1.73;1.60;;;;;;;;;;5098672;28;20275;-49
2021/12/28 12:51:16;;;;;;;1.85;1.75;;;;;;;;;;5090758;28;20257;-49
2021/12/28 12:53:48;;;;;;;2.78;2.10;;;;;;;;;;5097460;28;20209;-48
2021/12/28 12:56:16;;;;;;;1.88;1.75;;;;;;;;;;5099018;28;20488;-49
2021/12/28 12:58:46;;;;;;;1.92;1.73;;;;;;;;;;5090773;28;20314;-50
2021/12/28 13:01:19;;;;;;;1.98;1.60;;;;;;;;;;5096357;28;20177;-49
2021/12/28 13:03:45;;;;;;;2.08;1.50;;;;;;;;;;5095603;28;20185;-50
2021/12/28 13:06:11;;;;;;;1.70;1.55;;;;;;;;;;5096069;28;20428;-49
2021/12/28 13:08:37;;;;;;;2.10;1.90;;;;;;;;;;5094573;28;20257;-48
2021/12/28 13:11:03;;;;;;;2.33;1.60;;;;;;;;;;5095188;28;20272;-49
2021/12/28 13:13:29;;;;;;;2.20;1.83;;;;;;;;;;5095012;28;20221;-49
2021/12/28 13:15:55;;;;;;;1.77;1.48;;;;;;;;;;5094701;28;20226;-49
2021/12/28 13:18:21;;;;;;;1.60;1.50;;;;;;;;;;5089323;28;20193;-48
2021/12/28 13:20:49;;;;;;;1.70;1.52;;;;;;;;;;5095604;28;20201;-48
2021/12/28 13:23:15;;;;;;;1.52;1.42;;;;;;;;;;5096264;28;20192;-49
2021/12/28 13:25:44;;;;;;;1.60;1.50;;;;;;;;;;5094184;28;20480;-50
2021/12/28 13:28:11;;;;;;;1.40;1.30;;;;;;;;;;5094087;28;20178;-49
2021/12/28 13:30:39;;;;;;;1.60;1.50;;;;;;;;;;5095389;28;20238;-48
2021/12/28 13:33:08;;;;;;;1.55;1.45;;;;;;;;;;5092653;28;20248;-50
2021/12/28 13:35:36;;;;;;;2.03;1.55;;;;;;;;;;5093621;28;20174;-49
2021/12/28 13:38:16;;;;;;;1.40;1.30;;;;;;;;;;5093521;28;20558;-50
2021/12/28 13:40:50;;;;;;;1.48;1.38;;;;;;;;;;5093718;28;20257;-50
2021/12/28 13:43:22;;;;;;;1.58;1.48;;;;;;;;;;5091285;28;20181;-49
2021/12/28 13:45:59;;;;;;;1.98;1.40;;;;;;;;;;5091237;28;20181;-49
2021/12/28 13:48:27;;;;;;;1.80;1.58;;;;;;;;;;5109985;27;20193;-49
2021/12/28 13:51:00;;;;;;;1.45;1.35;;;;;;;;;;5113228;28;20205;-48
2021/12/28 13:53:28;;;;;;;1.40;1.30;;;;;;;;;;5114675;28;20606;-49
2021/12/28 13:55:56;;;;;;;1.27;1.17;;;;;;;;;;5110978;28;20173;-49
2021/12/28 13:58:24;;;;;;;1.23;1.13;;;;;;;;;;5114953;28;20606;-50
2021/12/28 14:00:52;;;;;;;1.60;1.50;;;;;;;;;;5112212;28;20544;-50
2021/12/28 14:03:18;;;;;;;1.50;1.40;;;;;;;;;;5113543;28;20193;-49
2021/12/28 14:05:47;;;;;;;1.40;1.30;;;;;;;;;;5104313;28;20501;-49
2021/12/28 14:08:14;;;;;;;1.40;1.30;;;;;;;;;;5106353;28;20177;-49
2021/12/28 14:10:40;;;;;;;1.45;1.35;;;;;;;;;;5108487;28;20510;-49
2021/12/28 14:13:08;;;;;;;1.38;1.27;;;;;;;;;;5113708;28;20212;-49
2021/12/28 14:15:49;;;;;;;1.02;1.02;;;;;;;;;;5114604;28;20187;-49
2021/12/28 14:18:42;;;;;;;1.40;1.30;;;;;;;;;;5113703;28;20173;-48
2021/12/28 14:21:15;;;;;;;1.48;1.38;;;;;;;;;;5112041;28;20193;-49
2021/12/28 14:23:42;;;;;;;1.40;1.30;;;;;;;;;;5111559;28;20185;-50
2021/12/28 14:26:08;;;;;;;1.40;1.30;;;;;;;;;;5112247;28;20189;-50
2021/12/28 14:28:35;;;;;;;1.23;1.13;;;;;;;;;;5113901;28;20185;-48
2021/12/28 14:31:19;;;;;;;0.90;0.90;;;;;;;;;;5112122;28;20181;-49
2021/12/28 14:33:50;;;;;;;1.23;1.00;;;;;;;;;;5113909;28;20205;-49
2021/12/28 14:36:16;;;;;;;0.98;0.98;;;;;;;;;;5114005;28;20182;-49
2021/12/28 14:38:42;;;;;;;1.30;1.20;;;;;;;;;;5107231;28;20173;-48
2021/12/28 14:41:21;;;;;;;1.15;1.10;;;;;;;;;;5113473;28;20178;-49
2021/12/28 14:43:47;;;;;;;1.20;1.10;;;;;;;;;;5112438;28;20254;-48
2021/12/28 14:46:26;;;;;;;1.30;1.20;;;;;;;;;;5108189;28;20205;-48
2021/12/28 14:48:52;;;;;;;1.30;1.20;;;;;;;;;;5087559;28;20273;-50
2021/12/28 14:51:28;;;;;;;1.48;1.33;;;;;;;;;;5094852;28;20228;-50